sensor_id;sensor_type;location;lat;lon;timestamp;P1;durP1;ratioP1;P2;durP2;ratioP2
78686;SDS011;68002;52.310;6.990;2023-03-26T00:00:44;11.57;;;3.70;;
78686;SDS011;68002;52.310;6.990;2023-03-26T00:03:10;11.48;;;3.85;;
78686;SDS011;68002;52.310;6.990;2023-03-26T00:05:36;13.73;;;4.00;;
78686;SDS011;68002;52.310;6.990;2023-03-26T00:08:02;10.00;;;3.67;;
78686;SDS011;68002;52.310;6.990;2023-03-26T00:10:28;13.82;;;3.78;;
78686;SDS011;68002;52.310;6.990;2023-03-26T00:12:53;11.00;;;3.85;;
78686;SDS011;68002;52.310;6.990;2023-03-26T00:15:18;14.27;;;3.93;;
78686;SDS011;68002;52.310;6.990;2023-03-26T00:17:43;9.30;;;3.10;;
78686;SDS011;68002;52.310;6.990;2023-03-26T00:20:08;10.70;;;3.37;;
78686;SDS011;68002;52.310;6.990;2023-03-26T00:22:34;9.13;;;3.20;;
78686;SDS011;68002;52.310;6.990;2023-03-26T00:24:59;9.67;;;3.17;;
78686;SDS011;68002;52.310;6.990;2023-03-26T00:27:24;12.17;;;3.60;;
78686;SDS011;68002;52.310;6.990;2023-03-26T00:29:49;10.80;;;3.03;;
78686;SDS011;68002;52.310;6.990;2023-03-26T00:32:15;8.93;;;3.40;;
78686;SDS011;68002;52.310;6.990;2023-03-26T00:34:40;13.30;;;4.33;;
78686;SDS011;68002;52.310;6.990;2023-03-26T00:37:05;13.17;;;3.70;;
78686;SDS011;68002;52.310;6.990;2023-03-26T00:39:31;14.52;;;4.03;;
78686;SDS011;68002;52.310;6.990;2023-03-26T00:41:56;12.20;;;3.50;;
78686;SDS011;68002;52.310;6.990;2023-03-26T00:44:21;12.00;;;4.57;;
78686;SDS011;68002;52.310;6.990;2023-03-26T00:46:46;10.17;;;4.30;;
78686;SDS011;68002;52.310;6.990;2023-03-26T00:49:12;10.60;;;3.27;;
78686;SDS011;68002;52.310;6.990;2023-03-26T00:51:37;11.67;;;3.60;;
78686;SDS011;68002;52.310;6.990;2023-03-26T00:54:02;11.90;;;3.63;;
78686;SDS011;68002;52.310;6.990;2023-03-26T00:56:27;11.97;;;4.53;;
78686;SDS011;68002;52.310;6.990;2023-03-26T00:58:53;13.07;;;3.50;;
78686;SDS011;68002;52.310;6.990;2023-03-26T01:01:21;9.87;;;3.07;;
78686;SDS011;68002;52.310;6.990;2023-03-26T01:03:48;14.15;;;4.72;;
78686;SDS011;68002;52.310;6.990;2023-03-26T01:06:17;12.50;;;3.33;;
78686;SDS011;68002;52.310;6.990;2023-03-26T01:08:49;16.88;;;4.15;;
78686;SDS011;68002;52.310;6.990;2023-03-26T01:11:21;9.73;;;3.35;;
78686;SDS011;68002;52.310;6.990;2023-03-26T01:13:56;7.75;;;3.22;;
78686;SDS011;68002;52.310;6.990;2023-03-26T01:16:25;10.25;;;3.80;;
78686;SDS011;68002;52.310;6.990;2023-03-26T01:18:53;9.40;;;3.88;;
78686;SDS011;68002;52.310;6.990;2023-03-26T01:21:20;12.77;;;4.15;;
78686;SDS011;68002;52.310;6.990;2023-03-26T01:24:21;10.40;;;3.50;;
78686;SDS011;68002;52.310;6.990;2023-03-26T01:26:53;9.15;;;3.50;;
78686;SDS011;68002;52.310;6.990;2023-03-26T01:37:33;10.63;;;3.63;;
78686;SDS011;68002;52.310;6.990;2023-03-26T01:40:16;14.73;;;4.47;;
78686;SDS011;68002;52.310;6.990;2023-03-26T01:45:53;11.55;;;4.70;;
78686;SDS011;68002;52.310;6.990;2023-03-26T01:48:27;12.93;;;4.05;;
78686;SDS011;68002;52.310;6.990;2023-03-26T01:50:53;15.95;;;4.00;;
78686;SDS011;68002;52.310;6.990;2023-03-26T01:53:19;10.83;;;4.03;;
78686;SDS011;68002;52.310;6.990;2023-03-26T01:58:35;12.70;;;4.40;;
78686;SDS011;68002;52.310;6.990;2023-03-26T02:06:43;11.57;;;4.00;;
78686;SDS011;68002;52.310;6.990;2023-03-26T02:09:15;12.60;;;4.63;;
78686;SDS011;68002;52.310;6.990;2023-03-26T02:11:44;12.68;;;4.25;;
78686;SDS011;68002;52.310;6.990;2023-03-26T02:14:11;10.55;;;4.30;;
78686;SDS011;68002;52.310;6.990;2023-03-26T02:16:38;16.63;;;4.88;;
78686;SDS011;68002;52.310;6.990;2023-03-26T02:19:04;12.57;;;5.03;;
78686;SDS011;68002;52.310;6.990;2023-03-26T02:21:29;12.77;;;4.05;;
78686;SDS011;68002;52.310;6.990;2023-03-26T02:23:55;13.17;;;4.60;;
78686;SDS011;68002;52.310;6.990;2023-03-26T02:26:22;11.93;;;4.47;;
78686;SDS011;68002;52.310;6.990;2023-03-26T02:28:48;14.18;;;4.90;;
78686;SDS011;68002;52.310;6.990;2023-03-26T02:31:13;15.38;;;6.25;;
78686;SDS011;68002;52.310;6.990;2023-03-26T02:33:39;14.93;;;4.77;;
78686;SDS011;68002;52.310;6.990;2023-03-26T02:36:04;15.87;;;4.67;;
78686;SDS011;68002;52.310;6.990;2023-03-26T02:38:31;16.95;;;5.40;;
78686;SDS011;68002;52.310;6.990;2023-03-26T02:40:56;16.65;;;5.35;;
78686;SDS011;68002;52.310;6.990;2023-03-26T02:43:22;13.00;;;4.43;;
78686;SDS011;68002;52.310;6.990;2023-03-26T02:45:47;14.23;;;6.17;;
78686;SDS011;68002;52.310;6.990;2023-03-26T02:48:12;16.48;;;4.82;;
78686;SDS011;68002;52.310;6.990;2023-03-26T02:50:38;12.37;;;4.47;;
78686;SDS011;68002;52.310;6.990;2023-03-26T02:53:03;13.67;;;5.07;;
78686;SDS011;68002;52.310;6.990;2023-03-26T02:55:28;17.75;;;6.03;;
78686;SDS011;68002;52.310;6.990;2023-03-26T02:57:54;16.67;;;6.00;;
78686;SDS011;68002;52.310;6.990;2023-03-26T03:00:19;11.80;;;4.27;;
78686;SDS011;68002;52.310;6.990;2023-03-26T03:02:44;15.02;;;5.65;;
78686;SDS011;68002;52.310;6.990;2023-03-26T03:05:10;13.53;;;4.93;;
78686;SDS011;68002;52.310;6.990;2023-03-26T03:07:35;14.10;;;4.77;;
78686;SDS011;68002;52.310;6.990;2023-03-26T03:10:00;13.33;;;5.03;;
78686;SDS011;68002;52.310;6.990;2023-03-26T03:12:25;17.70;;;5.87;;
78686;SDS011;68002;52.310;6.990;2023-03-26T03:14:50;14.03;;;5.03;;
78686;SDS011;68002;52.310;6.990;2023-03-26T03:17:15;12.23;;;5.40;;
78686;SDS011;68002;52.310;6.990;2023-03-26T03:19:41;15.47;;;4.80;;
78686;SDS011;68002;52.310;6.990;2023-03-26T03:22:06;13.43;;;4.73;;
78686;SDS011;68002;52.310;6.990;2023-03-26T03:24:31;14.43;;;5.20;;
78686;SDS011;68002;52.310;6.990;2023-03-26T03:26:56;14.13;;;4.83;;
78686;SDS011;68002;52.310;6.990;2023-03-26T03:29:22;12.20;;;4.13;;
78686;SDS011;68002;52.310;6.990;2023-03-26T03:31:47;12.37;;;4.53;;
78686;SDS011;68002;52.310;6.990;2023-03-26T03:34:12;13.63;;;4.53;;
78686;SDS011;68002;52.310;6.990;2023-03-26T03:36:37;19.90;;;5.57;;
78686;SDS011;68002;52.310;6.990;2023-03-26T03:39:02;15.97;;;4.77;;
78686;SDS011;68002;52.310;6.990;2023-03-26T03:41:28;14.82;;;5.25;;
78686;SDS011;68002;52.310;6.990;2023-03-26T03:43:53;12.50;;;5.10;;
78686;SDS011;68002;52.310;6.990;2023-03-26T03:46:18;12.53;;;4.23;;
78686;SDS011;68002;52.310;6.990;2023-03-26T03:48:44;13.50;;;4.57;;
78686;SDS011;68002;52.310;6.990;2023-03-26T03:51:09;18.40;;;6.17;;
78686;SDS011;68002;52.310;6.990;2023-03-26T03:53:34;15.33;;;5.97;;
78686;SDS011;68002;52.310;6.990;2023-03-26T03:55:59;14.63;;;4.77;;
78686;SDS011;68002;52.310;6.990;2023-03-26T03:58:25;17.00;;;5.30;;
78686;SDS011;68002;52.310;6.990;2023-03-26T04:00:51;14.45;;;5.07;;
78686;SDS011;68002;52.310;6.990;2023-03-26T04:03:17;22.90;;;6.38;;
78686;SDS011;68002;52.310;6.990;2023-03-26T04:05:43;21.60;;;6.25;;
78686;SDS011;68002;52.310;6.990;2023-03-26T04:08:08;15.88;;;5.88;;
78686;SDS011;68002;52.310;6.990;2023-03-26T04:10:33;15.90;;;4.80;;
78686;SDS011;68002;52.310;6.990;2023-03-26T04:12:59;13.77;;;4.53;;
78686;SDS011;68002;52.310;6.990;2023-03-26T04:15:24;19.70;;;6.47;;
78686;SDS011;68002;52.310;6.990;2023-03-26T04:17:49;22.03;;;5.87;;
78686;SDS011;68002;52.310;6.990;2023-03-26T04:20:15;14.90;;;5.07;;
78686;SDS011;68002;52.310;6.990;2023-03-26T04:22:43;18.20;;;6.00;;
78686;SDS011;68002;52.310;6.990;2023-03-26T04:25:08;13.20;;;5.25;;
78686;SDS011;68002;52.310;6.990;2023-03-26T04:27:35;15.98;;;4.15;;
78686;SDS011;68002;52.310;6.990;2023-03-26T04:30:01;15.48;;;5.10;;
78686;SDS011;68002;52.310;6.990;2023-03-26T04:32:28;12.48;;;4.93;;
78686;SDS011;68002;52.310;6.990;2023-03-26T04:34:55;14.60;;;5.22;;
78686;SDS011;68002;52.310;6.990;2023-03-26T04:37:23;14.10;;;4.85;;
78686;SDS011;68002;52.310;6.990;2023-03-26T04:39:54;15.05;;;4.72;;
78686;SDS011;68002;52.310;6.990;2023-03-26T04:42:19;14.97;;;5.30;;
78686;SDS011;68002;52.310;6.990;2023-03-26T04:44:47;13.60;;;4.35;;
78686;SDS011;68002;52.310;6.990;2023-03-26T04:47:13;17.83;;;4.65;;
78686;SDS011;68002;52.310;6.990;2023-03-26T04:49:38;20.20;;;5.87;;
78686;SDS011;68002;52.310;6.990;2023-03-26T04:52:03;16.67;;;4.80;;
78686;SDS011;68002;52.310;6.990;2023-03-26T04:54:29;20.77;;;5.30;;
78686;SDS011;68002;52.310;6.990;2023-03-26T04:57:37;21.93;;;5.13;;
78686;SDS011;68002;52.310;6.990;2023-03-26T04:59:56;18.30;;;5.80;;
78686;SDS011;68002;52.310;6.990;2023-03-26T05:02:21;17.30;;;4.63;;
78686;SDS011;68002;52.310;6.990;2023-03-26T05:04:46;12.60;;;4.80;;
78686;SDS011;68002;52.310;6.990;2023-03-26T05:07:14;18.13;;;5.10;;
78686;SDS011;68002;52.310;6.990;2023-03-26T05:09:42;13.48;;;4.53;;
78686;SDS011;68002;52.310;6.990;2023-03-26T05:12:08;17.03;;;4.37;;
78686;SDS011;68002;52.310;6.990;2023-03-26T05:14:33;22.80;;;6.20;;
78686;SDS011;68002;52.310;6.990;2023-03-26T05:16:58;20.80;;;5.40;;
78686;SDS011;68002;52.310;6.990;2023-03-26T05:19:25;15.90;;;5.18;;
78686;SDS011;68002;52.310;6.990;2023-03-26T05:21:50;16.77;;;5.53;;
78686;SDS011;68002;52.310;6.990;2023-03-26T05:24:15;16.90;;;4.57;;
78686;SDS011;68002;52.310;6.990;2023-03-26T05:26:41;18.13;;;4.77;;
78686;SDS011;68002;52.310;6.990;2023-03-26T05:29:06;14.35;;;4.70;;
78686;SDS011;68002;52.310;6.990;2023-03-26T05:31:32;17.63;;;4.23;;
78686;SDS011;68002;52.310;6.990;2023-03-26T05:33:57;14.73;;;4.40;;
78686;SDS011;68002;52.310;6.990;2023-03-26T05:36:23;16.33;;;5.53;;
78686;SDS011;68002;52.310;6.990;2023-03-26T05:38:48;13.73;;;4.87;;
78686;SDS011;68002;52.310;6.990;2023-03-26T05:41:14;17.92;;;5.93;;
78686;SDS011;68002;52.310;6.990;2023-03-26T05:43:40;17.05;;;4.05;;
78686;SDS011;68002;52.310;6.990;2023-03-26T05:46:06;17.05;;;4.43;;
78686;SDS011;68002;52.310;6.990;2023-03-26T05:48:31;15.35;;;4.40;;
78686;SDS011;68002;52.310;6.990;2023-03-26T05:50:57;17.58;;;6.13;;
78686;SDS011;68002;52.310;6.990;2023-03-26T05:53:24;19.70;;;4.85;;
78686;SDS011;68002;52.310;6.990;2023-03-26T05:55:50;18.58;;;5.45;;
78686;SDS011;68002;52.310;6.990;2023-03-26T05:58:16;15.10;;;5.20;;
78686;SDS011;68002;52.310;6.990;2023-03-26T06:00:41;19.27;;;6.50;;
78686;SDS011;68002;52.310;6.990;2023-03-26T06:03:07;17.60;;;5.65;;
78686;SDS011;68002;52.310;6.990;2023-03-26T06:05:33;15.38;;;5.50;;
78686;SDS011;68002;52.310;6.990;2023-03-26T06:07:59;21.48;;;5.97;;
78686;SDS011;68002;52.310;6.990;2023-03-26T06:10:24;10.13;;;4.80;;
78686;SDS011;68002;52.310;6.990;2023-03-26T06:12:50;13.63;;;5.03;;
78686;SDS011;68002;52.310;6.990;2023-03-26T06:15:15;17.43;;;5.90;;
78686;SDS011;68002;52.310;6.990;2023-03-26T06:17:40;18.23;;;4.87;;
78686;SDS011;68002;52.310;6.990;2023-03-26T06:20:05;15.53;;;5.30;;
78686;SDS011;68002;52.310;6.990;2023-03-26T06:22:31;15.73;;;5.57;;
78686;SDS011;68002;52.310;6.990;2023-03-26T06:24:56;17.13;;;5.97;;
78686;SDS011;68002;52.310;6.990;2023-03-26T06:27:22;25.03;;;6.80;;
78686;SDS011;68002;52.310;6.990;2023-03-26T06:29:47;17.20;;;6.23;;
78686;SDS011;68002;52.310;6.990;2023-03-26T06:32:12;22.17;;;5.53;;
78686;SDS011;68002;52.310;6.990;2023-03-26T06:34:37;19.50;;;6.10;;
78686;SDS011;68002;52.310;6.990;2023-03-26T06:37:02;17.47;;;5.10;;
78686;SDS011;68002;52.310;6.990;2023-03-26T06:39:28;16.40;;;5.97;;
78686;SDS011;68002;52.310;6.990;2023-03-26T06:41:53;16.87;;;5.07;;
78686;SDS011;68002;52.310;6.990;2023-03-26T06:44:18;17.67;;;5.13;;
78686;SDS011;68002;52.310;6.990;2023-03-26T06:46:43;13.87;;;4.90;;
78686;SDS011;68002;52.310;6.990;2023-03-26T06:49:08;15.70;;;4.63;;
78686;SDS011;68002;52.310;6.990;2023-03-26T06:51:34;20.20;;;5.93;;
78686;SDS011;68002;52.310;6.990;2023-03-26T06:53:59;15.60;;;4.87;;
78686;SDS011;68002;52.310;6.990;2023-03-26T06:56:24;10.33;;;4.20;;
78686;SDS011;68002;52.310;6.990;2023-03-26T06:58:49;16.90;;;6.27;;
78686;SDS011;68002;52.310;6.990;2023-03-26T07:01:15;19.33;;;7.07;;
78686;SDS011;68002;52.310;6.990;2023-03-26T07:03:40;23.07;;;6.67;;
78686;SDS011;68002;52.310;6.990;2023-03-26T07:06:05;18.83;;;6.30;;
78686;SDS011;68002;52.310;6.990;2023-03-26T07:08:31;15.38;;;6.68;;
78686;SDS011;68002;52.310;6.990;2023-03-26T07:10:56;19.73;;;5.67;;
78686;SDS011;68002;52.310;6.990;2023-03-26T07:13:21;17.77;;;6.13;;
78686;SDS011;68002;52.310;6.990;2023-03-26T07:15:47;18.60;;;6.30;;
78686;SDS011;68002;52.310;6.990;2023-03-26T07:18:12;12.52;;;4.57;;
78686;SDS011;68002;52.310;6.990;2023-03-26T07:20:37;17.57;;;7.10;;
78686;SDS011;68002;52.310;6.990;2023-03-26T07:23:03;16.73;;;6.20;;
78686;SDS011;68002;52.310;6.990;2023-03-26T07:25:28;19.05;;;7.10;;
78686;SDS011;68002;52.310;6.990;2023-03-26T07:33:47;16.13;;;7.13;;
78686;SDS011;68002;52.310;6.990;2023-03-26T07:36:32;13.60;;;4.55;;
78686;SDS011;68002;52.310;6.990;2023-03-26T07:41:54;14.93;;;4.90;;
78686;SDS011;68002;52.310;6.990;2023-03-26T07:44:42;11.38;;;5.53;;
78686;SDS011;68002;52.310;6.990;2023-03-26T07:47:28;9.90;;;3.78;;
78686;SDS011;68002;52.310;6.990;2023-03-26T07:49:56;8.88;;;4.03;;
78686;SDS011;68002;52.310;6.990;2023-03-26T07:52:22;8.85;;;4.28;;
78686;SDS011;68002;52.310;6.990;2023-03-26T07:54:47;5.45;;;2.63;;
78686;SDS011;68002;52.310;6.990;2023-03-26T08:00:21;9.15;;;3.50;;
78686;SDS011;68002;52.310;6.990;2023-03-26T08:03:08;6.25;;;2.28;;
78686;SDS011;68002;52.310;6.990;2023-03-26T08:06:02;8.43;;;3.47;;
78686;SDS011;68002;52.310;6.990;2023-03-26T08:08:39;9.60;;;2.53;;
78686;SDS011;68002;52.310;6.990;2023-03-26T08:16:18;7.50;;;2.25;;
78686;SDS011;68002;52.310;6.990;2023-03-26T08:21:38;8.60;;;2.33;;
78686;SDS011;68002;52.310;6.990;2023-03-26T08:24:21;5.72;;;2.22;;
78686;SDS011;68002;52.310;6.990;2023-03-26T08:26:58;5.38;;;2.50;;
78686;SDS011;68002;52.310;6.990;2023-03-26T08:29:45;11.98;;;3.05;;
78686;SDS011;68002;52.310;6.990;2023-03-26T08:32:16;7.38;;;3.30;;
78686;SDS011;68002;52.310;6.990;2023-03-26T08:34:42;7.47;;;3.13;;
78686;SDS011;68002;52.310;6.990;2023-03-26T08:37:08;12.00;;;3.55;;
78686;SDS011;68002;52.310;6.990;2023-03-26T08:39:34;6.17;;;1.93;;
78686;SDS011;68002;52.310;6.990;2023-03-26T08:42:15;6.28;;;2.45;;
78686;SDS011;68002;52.310;6.990;2023-03-26T08:53:36;7.03;;;2.03;;
78686;SDS011;68002;52.310;6.990;2023-03-26T09:14:07;6.38;;;2.35;;
78686;SDS011;68002;52.310;6.990;2023-03-26T09:25:24;5.65;;;2.53;;
78686;SDS011;68002;52.310;6.990;2023-03-26T09:36:54;5.82;;;2.20;;
78686;SDS011;68002;52.310;6.990;2023-03-26T09:39:33;7.68;;;2.78;;
78686;SDS011;68002;52.310;6.990;2023-03-26T09:42:59;7.57;;;2.53;;
78686;SDS011;68002;52.310;6.990;2023-03-26T09:48:29;7.07;;;2.60;;
78686;SDS011;68002;52.310;6.990;2023-03-26T09:51:22;8.23;;;3.20;;
78686;SDS011;68002;52.310;6.990;2023-03-26T09:57:12;8.95;;;2.80;;
78686;SDS011;68002;52.310;6.990;2023-03-26T10:02:34;7.70;;;2.60;;
78686;SDS011;68002;52.310;6.990;2023-03-26T10:16:09;7.78;;;3.75;;
78686;SDS011;68002;52.310;6.990;2023-03-26T10:21:41;9.38;;;3.72;;
78686;SDS011;68002;52.310;6.990;2023-03-26T10:24:37;9.05;;;3.97;;
78686;SDS011;68002;52.310;6.990;2023-03-26T10:32:48;9.27;;;3.88;;
78686;SDS011;68002;52.310;6.990;2023-03-26T10:41:27;6.30;;;3.40;;
78686;SDS011;68002;52.310;6.990;2023-03-26T10:52:37;6.75;;;3.65;;
78686;SDS011;68002;52.310;6.990;2023-03-26T10:55:21;11.30;;;3.25;;
78686;SDS011;68002;52.310;6.990;2023-03-26T11:00:42;8.43;;;4.25;;
78686;SDS011;68002;52.310;6.990;2023-03-26T11:09:01;9.20;;;3.53;;
78686;SDS011;68002;52.310;6.990;2023-03-26T11:14:33;8.52;;;3.03;;
78686;SDS011;68002;52.310;6.990;2023-03-26T11:22:45;12.20;;;3.28;;
78686;SDS011;68002;52.310;6.990;2023-03-26T11:28:25;11.77;;;3.70;;
78686;SDS011;68002;52.310;6.990;2023-03-26T11:30:56;13.00;;;4.03;;
78686;SDS011;68002;52.310;6.990;2023-03-26T11:33:24;12.50;;;3.28;;
78686;SDS011;68002;52.310;6.990;2023-03-26T11:35:54;10.65;;;3.33;;
78686;SDS011;68002;52.310;6.990;2023-03-26T11:38:25;9.68;;;3.72;;
78686;SDS011;68002;52.310;6.990;2023-03-26T11:40:56;12.07;;;3.83;;
78686;SDS011;68002;52.310;6.990;2023-03-26T11:43:25;12.30;;;3.95;;
78686;SDS011;68002;52.310;6.990;2023-03-26T11:45:57;11.23;;;3.45;;
78686;SDS011;68002;52.310;6.990;2023-03-26T11:51:01;13.27;;;4.05;;
78686;SDS011;68002;52.310;6.990;2023-03-26T11:53:31;6.68;;;4.03;;
78686;SDS011;68002;52.310;6.990;2023-03-26T11:58:54;9.73;;;3.95;;
78686;SDS011;68002;52.310;6.990;2023-03-26T12:01:25;7.97;;;4.18;;
78686;SDS011;68002;52.310;6.990;2023-03-26T12:06:55;9.68;;;3.75;;
78686;SDS011;68002;52.310;6.990;2023-03-26T12:12:16;8.85;;;4.25;;
78686;SDS011;68002;52.310;6.990;2023-03-26T12:14:41;12.07;;;4.70;;
78686;SDS011;68002;52.310;6.990;2023-03-26T12:17:11;13.85;;;4.97;;
78686;SDS011;68002;52.310;6.990;2023-03-26T12:19:43;9.65;;;4.45;;
78686;SDS011;68002;52.310;6.990;2023-03-26T12:24:59;11.25;;;4.18;;
78686;SDS011;68002;52.310;6.990;2023-03-26T12:27:27;11.90;;;4.63;;
78686;SDS011;68002;52.310;6.990;2023-03-26T12:30:09;9.80;;;4.17;;
78686;SDS011;68002;52.310;6.990;2023-03-26T12:32:42;12.82;;;5.00;;
78686;SDS011;68002;52.310;6.990;2023-03-26T12:35:15;15.40;;;4.90;;
78686;SDS011;68002;52.310;6.990;2023-03-26T12:37:41;12.90;;;4.55;;
78686;SDS011;68002;52.310;6.990;2023-03-26T12:40:28;11.77;;;4.23;;
78686;SDS011;68002;52.310;6.990;2023-03-26T12:42:57;11.82;;;3.63;;
78686;SDS011;68002;52.310;6.990;2023-03-26T12:45:28;13.35;;;4.28;;
78686;SDS011;68002;52.310;6.990;2023-03-26T12:47:56;10.45;;;4.43;;
78686;SDS011;68002;52.310;6.990;2023-03-26T12:50:25;11.77;;;4.65;;
78686;SDS011;68002;52.310;6.990;2023-03-26T12:55:46;12.40;;;4.32;;
78686;SDS011;68002;52.310;6.990;2023-03-26T12:58:31;10.32;;;3.13;;
78686;SDS011;68002;52.310;6.990;2023-03-26T13:01:24;9.85;;;3.15;;
78686;SDS011;68002;52.310;6.990;2023-03-26T13:06:44;7.95;;;3.78;;
78686;SDS011;68002;52.310;6.990;2023-03-26T13:09:14;4.47;;;2.08;;
78686;SDS011;68002;52.310;6.990;2023-03-26T13:11:54;5.35;;;3.25;;
78686;SDS011;68002;52.310;6.990;2023-03-26T13:14:42;8.60;;;2.42;;
78686;SDS011;68002;52.310;6.990;2023-03-26T13:20:15;7.38;;;2.40;;
78686;SDS011;68002;52.310;6.990;2023-03-26T13:28:30;5.85;;;1.85;;
78686;SDS011;68002;52.310;6.990;2023-03-26T13:34:08;7.43;;;1.35;;
78686;SDS011;68002;52.310;6.990;2023-03-26T13:39:35;4.32;;;0.85;;
78686;SDS011;68002;52.310;6.990;2023-03-26T13:44:56;4.60;;;0.90;;
78686;SDS011;68002;52.310;6.990;2023-03-26T13:47:35;6.25;;;1.67;;
78686;SDS011;68002;52.310;6.990;2023-03-26T13:50:09;5.13;;;1.15;;
78686;SDS011;68002;52.310;6.990;2023-03-26T13:52:43;4.40;;;1.25;;
78686;SDS011;68002;52.310;6.990;2023-03-26T13:55:17;5.35;;;1.25;;
78686;SDS011;68002;52.310;6.990;2023-03-26T13:57:55;9.75;;;1.98;;
78686;SDS011;68002;52.310;6.990;2023-03-26T14:03:11;8.55;;;1.48;;
78686;SDS011;68002;52.310;6.990;2023-03-26T14:05:45;5.00;;;1.10;;
78686;SDS011;68002;52.310;6.990;2023-03-26T14:08:26;6.18;;;1.10;;
78686;SDS011;68002;52.310;6.990;2023-03-26T14:16:08;4.78;;;1.15;;
78686;SDS011;68002;52.310;6.990;2023-03-26T14:21:19;8.13;;;2.00;;
78686;SDS011;68002;52.310;6.990;2023-03-26T14:43:38;6.03;;;1.73;;
78686;SDS011;68002;52.310;6.990;2023-03-26T14:51:58;5.20;;;1.27;;
78686;SDS011;68002;52.310;6.990;2023-03-26T14:54:30;6.60;;;1.52;;
78686;SDS011;68002;52.310;6.990;2023-03-26T15:08:24;4.70;;;1.58;;
78686;SDS011;68002;52.310;6.990;2023-03-26T15:11:30;4.40;;;0.70;;
78686;SDS011;68002;52.310;6.990;2023-03-26T15:14:16;7.47;;;1.23;;
78686;SDS011;68002;52.310;6.990;2023-03-26T15:29:19;6.97;;;1.40;;
78686;SDS011;68002;52.310;6.990;2023-03-26T15:31:44;5.53;;;1.42;;
78686;SDS011;68002;52.310;6.990;2023-03-26T15:34:46;9.23;;;1.48;;
78686;SDS011;68002;52.310;6.990;2023-03-26T15:40:29;7.35;;;1.70;;
78686;SDS011;68002;52.310;6.990;2023-03-26T15:45:38;6.65;;;1.42;;
78686;SDS011;68002;52.310;6.990;2023-03-26T15:50:36;7.97;;;1.73;;
78686;SDS011;68002;52.310;6.990;2023-03-26T15:53:16;6.97;;;1.73;;
78686;SDS011;68002;52.310;6.990;2023-03-26T15:58:55;6.60;;;1.25;;
78686;SDS011;68002;52.310;6.990;2023-03-26T16:01:34;4.65;;;1.48;;
78686;SDS011;68002;52.310;6.990;2023-03-26T16:04:10;6.32;;;1.55;;
78686;SDS011;68002;52.310;6.990;2023-03-26T16:06:58;7.30;;;2.20;;
78686;SDS011;68002;52.310;6.990;2023-03-26T16:09:35;5.68;;;1.48;;
78686;SDS011;68002;52.310;6.990;2023-03-26T16:14:41;6.10;;;1.25;;
78686;SDS011;68002;52.310;6.990;2023-03-26T16:17:17;4.88;;;1.15;;
78686;SDS011;68002;52.310;6.990;2023-03-26T16:25:31;4.90;;;1.02;;
78686;SDS011;68002;52.310;6.990;2023-03-26T16:28:05;4.45;;;1.38;;
78686;SDS011;68002;52.310;6.990;2023-03-26T16:30:43;7.13;;;1.38;;
78686;SDS011;68002;52.310;6.990;2023-03-26T16:38:54;4.63;;;0.93;;
78686;SDS011;68002;52.310;6.990;2023-03-26T16:47:48;7.00;;;1.35;;
78686;SDS011;68002;52.310;6.990;2023-03-26T16:52:57;7.95;;;1.75;;
78686;SDS011;68002;52.310;6.990;2023-03-26T16:55:52;6.65;;;1.02;;
78686;SDS011;68002;52.310;6.990;2023-03-26T17:01:28;4.40;;;0.93;;
78686;SDS011;68002;52.310;6.990;2023-03-26T17:04:03;9.13;;;1.48;;
78686;SDS011;68002;52.310;6.990;2023-03-26T17:06:44;10.98;;;1.35;;
78686;SDS011;68002;52.310;6.990;2023-03-26T17:14:54;5.05;;;1.42;;
78686;SDS011;68002;52.310;6.990;2023-03-26T17:22:44;8.27;;;1.42;;
78686;SDS011;68002;52.310;6.990;2023-03-26T17:25:18;5.15;;;1.13;;
78686;SDS011;68002;52.310;6.990;2023-03-26T17:27:53;4.50;;;1.13;;
78686;SDS011;68002;52.310;6.990;2023-03-26T17:30:41;5.35;;;1.23;;
78686;SDS011;68002;52.310;6.990;2023-03-26T17:33:26;7.38;;;2.28;;
78686;SDS011;68002;52.310;6.990;2023-03-26T17:41:03;5.78;;;1.15;;
78686;SDS011;68002;52.310;6.990;2023-03-26T17:46:17;3.80;;;0.73;;
78686;SDS011;68002;52.310;6.990;2023-03-26T17:57:01;7.88;;;1.13;;
78686;SDS011;68002;52.310;6.990;2023-03-26T17:59:33;5.85;;;1.15;;
78686;SDS011;68002;52.310;6.990;2023-03-26T18:02:01;4.22;;;0.88;;
78686;SDS011;68002;52.310;6.990;2023-03-26T18:04:35;9.07;;;1.15;;
78686;SDS011;68002;52.310;6.990;2023-03-26T18:12:37;8.32;;;1.52;;
78686;SDS011;68002;52.310;6.990;2023-03-26T18:17:45;4.85;;;0.95;;
78686;SDS011;68002;52.310;6.990;2023-03-26T18:20:21;4.75;;;1.20;;
78686;SDS011;68002;52.310;6.990;2023-03-26T18:22:49;4.88;;;1.50;;
78686;SDS011;68002;52.310;6.990;2023-03-26T18:25:33;6.13;;;0.77;;
78686;SDS011;68002;52.310;6.990;2023-03-26T18:27:59;5.45;;;0.93;;
78686;SDS011;68002;52.310;6.990;2023-03-26T18:30:25;7.47;;;0.98;;
78686;SDS011;68002;52.310;6.990;2023-03-26T18:35:40;6.40;;;0.93;;
78686;SDS011;68002;52.310;6.990;2023-03-26T18:38:11;6.22;;;1.08;;
78686;SDS011;68002;52.310;6.990;2023-03-26T18:40:40;7.25;;;1.13;;
78686;SDS011;68002;52.310;6.990;2023-03-26T18:43:17;6.60;;;1.05;;
78686;SDS011;68002;52.310;6.990;2023-03-26T18:45:46;7.70;;;1.02;;
78686;SDS011;68002;52.310;6.990;2023-03-26T18:48:17;7.97;;;1.10;;
78686;SDS011;68002;52.310;6.990;2023-03-26T18:50:45;5.90;;;1.50;;
78686;SDS011;68002;52.310;6.990;2023-03-26T18:53:34;5.72;;;1.15;;
78686;SDS011;68002;52.310;6.990;2023-03-26T18:56:16;5.10;;;1.17;;
78686;SDS011;68002;52.310;6.990;2023-03-26T18:58:45;3.70;;;1.20;;
78686;SDS011;68002;52.310;6.990;2023-03-26T19:01:15;3.75;;;1.02;;
78686;SDS011;68002;52.310;6.990;2023-03-26T19:03:41;4.70;;;1.15;;
78686;SDS011;68002;52.310;6.990;2023-03-26T19:06:07;7.67;;;0.93;;
78686;SDS011;68002;52.310;6.990;2023-03-26T19:08:34;3.03;;;1.30;;
78686;SDS011;68002;52.310;6.990;2023-03-26T19:11:01;5.93;;;1.05;;
78686;SDS011;68002;52.310;6.990;2023-03-26T19:13:26;8.53;;;1.17;;
78686;SDS011;68002;52.310;6.990;2023-03-26T19:15:52;3.85;;;0.65;;
78686;SDS011;68002;52.310;6.990;2023-03-26T19:18:26;6.50;;;1.55;;
78686;SDS011;68002;52.310;6.990;2023-03-26T19:21:01;5.28;;;1.02;;
78686;SDS011;68002;52.310;6.990;2023-03-26T19:23:31;6.10;;;1.75;;
78686;SDS011;68002;52.310;6.990;2023-03-26T19:26:01;8.23;;;1.50;;
78686;SDS011;68002;52.310;6.990;2023-03-26T19:31:19;4.45;;;0.85;;
78686;SDS011;68002;52.310;6.990;2023-03-26T19:33:53;4.32;;;0.95;;
78686;SDS011;68002;52.310;6.990;2023-03-26T19:36:22;8.43;;;1.33;;
78686;SDS011;68002;52.310;6.990;2023-03-26T19:38:51;7.43;;;1.95;;
78686;SDS011;68002;52.310;6.990;2023-03-26T19:43:49;5.85;;;1.10;;
78686;SDS011;68002;52.310;6.990;2023-03-26T19:46:16;6.05;;;1.33;;
78686;SDS011;68002;52.310;6.990;2023-03-26T19:48:45;6.55;;;1.23;;
78686;SDS011;68002;52.310;6.990;2023-03-26T19:51:13;8.30;;;0.90;;
78686;SDS011;68002;52.310;6.990;2023-03-26T19:54:03;7.63;;;1.23;;
78686;SDS011;68002;52.310;6.990;2023-03-26T19:56:42;6.80;;;1.52;;
78686;SDS011;68002;52.310;6.990;2023-03-26T19:59:07;5.30;;;1.67;;
78686;SDS011;68002;52.310;6.990;2023-03-26T20:01:32;8.03;;;1.23;;
78686;SDS011;68002;52.310;6.990;2023-03-26T20:04:04;4.53;;;1.00;;
78686;SDS011;68002;52.310;6.990;2023-03-26T20:06:33;3.00;;;0.90;;
78686;SDS011;68002;52.310;6.990;2023-03-26T20:08:58;3.97;;;1.07;;
78686;SDS011;68002;52.310;6.990;2023-03-26T20:11:29;5.07;;;1.15;;
78686;SDS011;68002;52.310;6.990;2023-03-26T20:13:56;5.20;;;0.93;;
78686;SDS011;68002;52.310;6.990;2023-03-26T20:16:25;13.83;;;1.70;;
78686;SDS011;68002;52.310;6.990;2023-03-26T20:18:52;8.40;;;1.67;;
78686;SDS011;68002;52.310;6.990;2023-03-26T20:21:18;12.00;;;1.30;;
78686;SDS011;68002;52.310;6.990;2023-03-26T20:23:43;8.23;;;1.90;;